Terminal Aerodrome Forecast
Issued by NWS

Home | Current Version | Previous Version | Graphics & Text | Print | Product List | Glossary On
Versions: 1 2 3 4 5 6 7 8 9 10 11 12 13 14 15 16
449
FTUS43 KICT 160855 AAA
TAFHUT
TAF AMD
KHUT 160855Z 1609/1706 16006KT P6SM SCT009 BKN060
     FM161100 17009KT P6SM VCTS SCT008CB BKN040
     FM161300 18009KT P6SM BKN015
     FM161600 19008KT P6SM SCT030
     FM162100 23012KT P6SM VCTS SCT050CB BKN080=

USA.gov is the U.S. government's official web portal to all federal, state and local government web resources and services.